Time;durP1;ratioP1;P1;durP2;ratioP2;P2;SDS_P1;SDS_P2;PMS_P1;PMS_P2;Temp;Humidity;BMP_temperature;BMP_pressure;BME280_temperature;BME280_humidity;BME280_pressure;Samples;Min_cycle;Max_cycle;Signal;HPM_P1;HPM_P2
2021/08/31 00:01:48;;;;;;;8.02;6.57;;;;;;;20.90;100.00;100969.38;4882441;29;20048;-65
2021/08/31 00:04:34;;;;;;;6.45;5.85;;;;;;;20.57;100.00;100976.56;4882586;29;20101;-65
2021/08/31 00:07:19;;;;;;;7.25;5.90;;;;;;;20.79;100.00;100977.97;4881475;29;20039;-65
2021/08/31 00:10:07;;;;;;;6.90;6.10;;;;;;;20.88;100.00;100984.56;4881863;29;20025;-66
2021/08/31 00:12:52;;;;;;;7.38;5.97;;;;;;;20.72;100.00;100981.03;4881829;29;20474;-66
2021/08/31 00:15:38;;;;;;;7.00;5.93;;;;;;;20.74;100.00;100985.31;4882185;29;20033;-65
2021/08/31 00:18:24;;;;;;;7.10;6.40;;;;;;;20.55;100.00;100983.75;4882537;29;20430;-65
2021/08/31 00:21:11;;;;;;;7.55;6.85;;;;;;;20.27;100.00;100980.84;4881299;29;20101;-65
2021/08/31 00:23:56;;;;;;;9.52;6.43;;;;;;;20.56;100.00;100991.66;4881406;29;20044;-66
2021/08/31 00:26:42;;;;;;;7.93;6.70;;;;;;;20.23;100.00;100993.47;4881062;29;20021;-66
2021/08/31 00:29:28;;;;;;;8.65;6.65;;;;;;;20.03;100.00;100982.09;4881593;29;20036;-65
2021/08/31 00:32:14;;;;;;;7.70;6.80;;;;;;;20.36;100.00;100988.34;4881590;29;20029;-65
2021/08/31 00:34:59;;;;;;;7.03;6.32;;;;;;;20.09;100.00;100987.13;4881600;29;20056;-65
2021/08/31 00:37:45;;;;;;;7.63;6.85;;;;;;;20.30;100.00;100994.00;4881495;29;20021;-66
2021/08/31 00:40:32;;;;;;;6.97;6.28;;;;;;;20.31;100.00;100983.28;4880811;29;20029;-65
2021/08/31 00:43:18;;;;;;;7.05;6.38;;;;;;;20.10;100.00;100987.06;4881198;29;20100;-65
2021/08/31 00:46:03;;;;;;;7.50;6.53;;;;;;;20.14;100.00;100987.75;4881859;29;20136;-66
2021/08/31 00:48:51;;;;;;;8.35;6.68;;;;;;;20.10;100.00;100989.72;4881159;29;20088;-65
2021/08/31 00:51:37;;;;;;;7.05;6.35;;;;;;;20.20;100.00;100992.75;4881880;29;20101;-65
2021/08/31 00:54:23;;;;;;;7.45;6.60;;;;;;;20.28;100.00;100987.88;4880939;29;20111;-66
2021/08/31 00:57:09;;;;;;;8.18;6.68;;;;;;;20.19;100.00;100986.59;4879984;29;20025;-65
2021/08/31 00:59:54;;;;;;;8.82;7.50;;;;;;;19.91;100.00;100990.72;4880290;29;20092;-65
2021/08/31 01:02:42;;;;;;;7.47;6.78;;;;;;;20.06;100.00;100992.59;4880494;29;20029;-65
2021/08/31 01:05:30;;;;;;;7.65;6.82;;;;;;;20.50;100.00;100997.34;4881708;29;20109;-65
2021/08/31 01:08:15;;;;;;;9.20;6.50;;;;;;;19.96;100.00;100997.50;4881127;29;20360;-65
2021/08/31 01:11:02;;;;;;;7.18;6.47;;;;;;;19.53;100.00;100994.44;4880145;29;20518;-65
2021/08/31 01:13:48;;;;;;;7.35;6.65;;;;;;;19.73;100.00;100999.63;4881748;29;20140;-65
2021/08/31 01:16:35;;;;;;;7.43;6.72;;;;;;;19.70;100.00;100998.00;4880321;29;20033;-65
2021/08/31 01:19:29;;;;;;;7.05;6.35;;;;;;;19.80;100.00;101001.06;4867903;29;20176;-65
2021/08/31 01:22:14;;;;;;;8.40;7.20;;;;;;;19.67;100.00;100994.59;4867889;29;20347;-65
2021/08/31 01:25:03;;;;;;;14.40;7.47;;;;;;;19.36;100.00;100989.97;4879985;29;20037;-66
2021/08/31 01:27:49;;;;;;;12.98;7.38;;;;;;;19.44;100.00;101002.88;4880380;29;20427;-65
2021/08/31 01:30:34;;;;;;;8.00;6.68;;;;;;;19.54;100.00;100999.69;4879858;29;20056;-66
2021/08/31 01:56:39;;;;;;;6.90;6.22;;;;;;;19.06;100.00;101002.88;5132845;23;20086;-65
2021/08/31 01:59:25;;;;;;;8.60;6.57;;;;;;;19.24;100.00;101009.16;4883424;29;20037;-65
2021/08/31 02:02:10;;;;;;;7.78;6.57;;;;;;;19.55;100.00;101003.19;4883346;29;20485;-65
2021/08/31 02:04:56;;;;;;;7.00;6.30;;;;;;;19.43;100.00;101002.00;4884813;29;20040;-65
2021/08/31 02:07:42;;;;;;;7.20;6.50;;;;;;;19.45;100.00;101000.13;4885101;29;20025;-65
2021/08/31 02:10:28;;;;;;;6.60;6.00;;;;;;;19.57;100.00;100993.38;4884433;29;20032;-65
2021/08/31 02:13:13;;;;;;;7.90;6.40;;;;;;;19.39;100.00;100994.25;4883410;29;20024;-65
2021/08/31 02:15:59;;;;;;;7.10;5.90;;;;;;;19.82;100.00;100994.72;4870143;29;20121;-65
2021/08/31 02:18:45;;;;;;;7.35;6.40;;;;;;;19.35;100.00;100990.91;4884668;29;20055;-65
2021/08/31 02:21:31;;;;;;;6.88;6.22;;;;;;;19.47;100.00;100997.41;4883158;29;20124;-65
2021/08/31 02:24:16;;;;;;;8.77;6.80;;;;;;;19.15;100.00;101004.25;4883286;29;20340;-65
2021/08/31 02:27:02;;;;;;;7.40;6.70;;;;;;;19.31;100.00;101005.28;4883400;29;20028;-65
2021/08/31 02:29:48;;;;;;;9.65;6.78;;;;;;;19.13;100.00;101000.81;4882666;29;20403;-65
2021/08/31 02:32:34;;;;;;;7.88;6.43;;;;;;;19.28;100.00;101013.38;4884340;29;20522;-66
2021/08/31 02:35:20;;;;;;;9.05;6.82;;;;;;;19.28;100.00;101008.06;4882932;29;20463;-66
2021/08/31 02:41:49;;;;;;;10.48;6.55;;;;;;;18.82;100.00;101014.66;4884181;29;20077;-66
2021/08/31 02:44:35;;;;;;;7.43;6.45;;;;;;;18.76;100.00;101022.06;4882754;29;20032;-65
2021/08/31 02:47:21;;;;;;;7.53;6.53;;;;;;;18.98;100.00;101020.13;4882387;29;20048;-66
2021/08/31 02:50:07;;;;;;;8.25;6.70;;;;;;;19.22;100.00;101021.63;4882610;29;20093;-66
2021/08/31 02:52:53;;;;;;;10.10;7.07;;;;;;;18.89;100.00;101018.75;4882959;29;20025;-66
2021/08/31 03:33:46;;;;;;;8.80;7.07;;;;;;;18.44;100.00;101042.09;5278245;23;20061;-67
2021/08/31 03:36:32;;;;;;;9.70;7.50;;;;;;;18.33;100.00;101039.00;4889537;29;20037;-68
2021/08/31 03:39:18;;;;;;;11.07;8.48;;;;;;;18.67;100.00;101047.25;4882888;29;20105;-68
2021/08/31 03:42:04;;;;;;;9.60;7.10;;;;;;;18.35;100.00;101045.16;4882233;29;20368;-68
2021/08/31 03:44:50;;;;;;;8.18;6.80;;;;;;;18.69;100.00;101042.72;4881501;29;20040;-68
2021/08/31 03:47:35;;;;;;;9.18;7.38;;;;;;;18.61;100.00;101049.31;4882081;29;20033;-68
2021/08/31 03:50:24;;;;;;;9.13;7.20;;;;;;;18.68;100.00;101050.75;4883189;29;20097;-68
2021/08/31 04:02:03;;;;;;;11.63;7.10;;;;;;;18.54;100.00;101053.16;5279091;23;20055;-67
2021/08/31 04:04:49;;;;;;;9.45;7.75;;;;;;;18.76;100.00;101061.88;4899982;29;20029;-67
2021/08/31 04:07:34;;;;;;;8.40;7.32;;;;;;;18.80;100.00;101052.84;4882310;29;20029;-67
2021/08/31 04:10:20;;;;;;;10.77;7.38;;;;;;;18.83;100.00;101061.53;4868514;29;20062;-67
2021/08/31 04:13:07;;;;;;;10.38;7.50;;;;;;;18.89;100.00;101068.38;4881951;29;20340;-67
2021/08/31 04:15:53;;;;;;;8.68;7.63;;;;;;;18.90;100.00;101070.94;4880570;29;20029;-67
2021/08/31 04:18:39;;;;;;;11.18;7.20;;;;;;;18.52;100.00;101073.59;4881465;29;20465;-67
2021/08/31 04:21:58;;;;;;;10.45;8.10;;;;;;;18.56;100.00;101073.41;4882676;29;20390;-67
2021/08/31 04:24:44;;;;;;;11.63;7.50;;;;;;;18.30;100.00;101078.97;4882629;29;20031;-67
2021/08/31 04:27:30;;;;;;;9.05;7.15;;;;;;;18.39;100.00;101073.28;4882230;29;20063;-67
2021/08/31 04:30:16;;;;;;;9.68;7.75;;;;;;;18.67;100.00;101068.47;4881851;29;20033;-67
2021/08/31 04:33:02;;;;;;;8.00;7.20;;;;;;;18.95;100.00;101078.69;4881289;29;20446;-67
2021/08/31 04:35:47;;;;;;;9.48;7.80;;;;;;;19.17;100.00;101071.47;4882113;29;20044;-67
2021/08/31 04:38:33;;;;;;;9.10;7.53;;;;;;;19.17;100.00;101071.47;4881761;29;20120;-67
2021/08/31 04:41:19;;;;;;;9.35;7.03;;;;;;;18.87;100.00;101078.19;4881739;29;20450;-67
2021/08/31 04:44:43;;;;;;;9.00;7.38;;;;;;;19.13;100.00;101077.88;4881372;29;20473;-67
2021/08/31 04:47:29;;;;;;;10.10;8.43;;;;;;;19.01;100.00;101084.59;4881860;29;20080;-67
2021/08/31 04:50:15;;;;;;;11.60;8.00;;;;;;;19.18;100.00;101095.28;4881841;29;20029;-67
2021/08/31 04:53:00;;;;;;;10.93;7.07;;;;;;;19.36;100.00;101092.75;4881636;29;20062;-67
2021/08/31 04:55:47;;;;;;;13.68;8.93;;;;;;;19.40;100.00;101091.66;4879133;29;20033;-67
2021/08/31 04:58:32;;;;;;;9.93;8.32;;;;;;;19.34;100.00;101095.47;4880147;29;20029;-67
2021/08/31 05:01:18;;;;;;;9.60;7.60;;;;;;;19.20;100.00;101097.88;4880418;29;20063;-67
2021/08/31 05:04:07;;;;;;;9.68;7.50;;;;;;;18.80;100.00;101095.31;4881749;29;20427;-67
2021/08/31 05:13:02;;;;;;;7.88;6.90;;;;;;;19.37;100.00;101092.66;4861034;29;20045;-67
2021/08/31 05:15:47;;;;;;;8.52;6.60;;;;;;;19.60;100.00;101097.72;4861631;29;20108;-67
2021/08/31 05:18:35;;;;;;;8.48;7.40;;;;;;;19.80;100.00;101102.09;4863086;29;20125;-67
2021/08/31 05:21:21;;;;;;;10.68;7.53;;;;;;;19.41;100.00;101099.53;4862245;29;20112;-68
2021/08/31 05:24:07;;;;;;;10.88;7.70;;;;;;;19.52;100.00;101101.72;4863536;29;20029;-68
2021/08/31 05:26:53;;;;;;;8.88;7.68;;;;;;;19.68;100.00;101106.19;4862454;29;20490;-68
2021/08/31 05:29:40;;;;;;;10.88;7.32;;;;;;;20.08;100.00;101100.63;4849327;29;20050;-68
2021/08/31 05:32:26;;;;;;;12.85;6.75;;;;;;;19.94;100.00;101092.50;4861587;29;20065;-68
2021/08/31 05:35:11;;;;;;;8.07;6.72;;;;;;;20.17;100.00;101102.84;4862173;29;20056;-68
2021/08/31 05:37:57;;;;;;;9.30;6.53;;;;;;;19.55;100.00;101098.88;4862582;29;20037;-67
2021/08/31 05:40:43;;;;;;;7.32;6.45;;;;;;;19.99;100.00;101102.88;4861544;29;20036;-67
2021/08/31 05:43:29;;;;;;;7.03;6.30;;;;;;;19.77;100.00;101104.91;4861857;29;20112;-67
2021/08/31 05:46:14;;;;;;;10.77;6.22;;;;;;;19.96;100.00;101106.56;4860142;29;20045;-67
2021/08/31 05:49:00;;;;;;;7.32;5.45;;;;;;;20.02;100.00;101103.63;4862280;29;20451;-68
2021/08/31 05:52:06;;;;;;;7.07;6.05;;;;;;;20.11;100.00;101104.97;4862670;29;20037;-67
2021/08/31 05:54:51;;;;;;;8.38;5.95;;;;;;;20.15;100.00;101110.06;4862699;29;20507;-67
2021/08/31 05:57:37;;;;;;;7.93;6.32;;;;;;;20.07;100.00;101104.25;4862037;29;20112;-67
2021/08/31 06:00:23;;;;;;;8.60;6.57;;;;;;;20.20;100.00;101105.38;4861552;29;20040;-67
2021/08/31 06:03:09;;;;;;;7.05;6.32;;;;;;;20.20;100.00;101108.03;4862165;29;20048;-67
2021/08/31 06:05:54;;;;;;;8.85;6.82;;;;;;;20.34;100.00;101102.88;4861862;29;20478;-67
2021/08/31 06:08:40;;;;;;;7.53;6.55;;;;;;;20.37;100.00;101107.19;4861604;29;20052;-67
2021/08/31 06:11:29;;;;;;;8.52;6.72;;;;;;;20.47;100.00;101114.63;4868299;29;20501;-67
2021/08/31 06:14:14;;;;;;;7.85;6.13;;;;;;;20.46;100.00;101112.91;4880986;29;20041;-67
2021/08/31 06:17:01;;;;;;;6.88;6.18;;;;;;;20.24;100.00;101100.75;4880475;29;20025;-67
2021/08/31 06:19:47;;;;;;;9.48;5.95;;;;;;;20.29;100.00;101104.06;4879256;29;20068;-67
2021/08/31 06:22:32;;;;;;;8.65;6.35;;;;;;;20.44;100.00;101109.44;4883844;29;20093;-67
2021/08/31 06:25:18;;;;;;;6.65;6.05;;;;;;;20.48;100.00;101108.34;4884009;29;20037;-67
2021/08/31 06:28:04;;;;;;;9.52;5.90;;;;;;;20.39;100.00;101105.28;4869633;29;20029;-67
2021/08/31 06:30:50;;;;;;;8.27;5.93;;;;;;;20.42;100.00;101102.47;4884292;29;20024;-67
2021/08/31 06:33:36;;;;;;;8.23;6.10;;;;;;;20.71;100.00;101109.78;4883826;29;20431;-67
2021/08/31 06:36:22;;;;;;;6.50;5.70;;;;;;;20.44;100.00;101103.25;4884245;29;20104;-67
2021/08/31 06:39:07;;;;;;;7.47;5.63;;;;;;;21.23;100.00;101109.63;4869362;29;20029;-67
2021/08/31 06:41:53;;;;;;;7.30;5.63;;;;;;;21.73;100.00;101106.81;4882435;29;20036;-67
2021/08/31 06:44:39;;;;;;;7.90;5.47;;;;;;;21.39;100.00;101113.16;4883930;29;20103;-67
2021/08/31 06:47:25;;;;;;;7.40;6.18;;;;;;;21.30;100.00;101115.47;4884316;29;20029;-67
2021/08/31 06:50:15;;;;;;;7.18;6.00;;;;;;;21.08;100.00;101118.44;4883376;29;20029;-67
2021/08/31 06:53:01;;;;;;;7.95;5.93;;;;;;;21.30;100.00;101118.97;4881965;29;20029;-66
2021/08/31 06:55:47;;;;;;;8.95;5.53;;;;;;;21.55;100.00;101116.69;4868899;29;20097;-67
2021/08/31 06:58:32;;;;;;;6.60;5.30;;;;;;;21.70;100.00;101123.84;4883137;29;20168;-67
2021/08/31 07:01:19;;;;;;;6.53;5.85;;;;;;;21.70;100.00;101128.31;4883105;29;20443;-67
2021/08/31 07:04:07;;;;;;;5.95;5.35;;;;;;;22.02;100.00;101122.03;4868495;29;20025;-66
2021/08/31 07:06:53;;;;;;;5.85;5.20;;;;;;;21.86;100.00;101115.84;4881699;29;20451;-67
2021/08/31 07:09:39;;;;;;;6.55;5.00;;;;;;;21.92;100.00;101119.03;4869476;29;20105;-66
2021/08/31 07:12:25;;;;;;;6.40;5.60;;;;;;;22.03;100.00;101121.91;4883048;29;20049;-66
2021/08/31 07:15:11;;;;;;;7.63;5.47;;;;;;;22.34;100.00;101131.66;4883166;29;20039;-66
2021/08/31 07:17:57;;;;;;;8.52;5.88;;;;;;;22.20;100.00;101131.59;4881364;29;20040;-66
2021/08/31 07:20:43;;;;;;;6.28;4.78;;;;;;;22.29;100.00;101137.28;4883142;29;20033;-66
2021/08/31 07:23:28;;;;;;;9.32;5.10;;;;;;;22.59;98.62;101124.78;4881966;29;20116;-66
2021/08/31 07:26:14;;;;;;;6.63;5.10;;;;;;;22.86;97.21;101132.91;4882204;29;20029;-67
2021/08/31 07:29:00;;;;;;;5.25;4.75;;;;;;;22.54;97.15;101128.66;4881452;29;20021;-67
2021/08/31 07:32:16;;;;;;;5.75;4.82;;;;;;;22.73;97.26;101135.50;4882563;29;20035;-66
2021/08/31 07:35:02;;;;;;;6.47;4.72;;;;;;;23.22;94.81;101131.53;4882768;29;20097;-66
2021/08/31 07:37:49;;;;;;;6.32;4.45;;;;;;;23.46;92.55;101129.13;4881889;29;20458;-66
2021/08/31 07:40:35;;;;;;;5.03;4.30;;;;;;;23.56;89.76;101138.28;4881251;29;20525;-66
2021/08/31 07:43:21;;;;;;;5.30;4.20;;;;;;;23.31;92.34;101130.94;4882170;29;20040;-66
2021/08/31 07:46:07;;;;;;;5.30;4.15;;;;;;;23.97;89.29;101116.88;4881205;29;20052;-66
2021/08/31 07:48:53;;;;;;;5.03;4.30;;;;;;;23.62;90.28;101116.47;4881525;29;20025;-66
2021/08/31 07:51:39;;;;;;;8.73;4.55;;;;;;;24.11;88.05;101116.81;4882241;29;20039;-66
2021/08/31 07:54:24;;;;;;;7.85;4.32;;;;;;;23.63;86.25;101106.63;4882516;29;20534;-66
2021/08/31 07:57:10;;;;;;;5.80;4.10;;;;;;;24.08;82.06;101120.56;4880764;29;20036;-66
2021/08/31 07:59:57;;;;;;;5.65;4.90;;;;;;;24.01;84.33;101108.53;4881307;29;20340;-66
2021/08/31 08:02:43;;;;;;;4.85;4.32;;;;;;;24.05;82.74;101103.81;4881028;29;20502;-66
2021/08/31 08:05:29;;;;;;;4.75;4.30;;;;;;;24.34;80.75;101105.44;4882211;29;20033;-65
2021/08/31 08:08:15;;;;;;;5.18;4.55;;;;;;;24.64;82.04;101108.69;4882273;29;20033;-66
2021/08/31 08:11:00;;;;;;;5.38;4.35;;;;;;;24.32;80.38;101099.31;4882296;29;20061;-66
2021/08/31 08:13:46;;;;;;;6.40;4.10;;;;;;;25.07;78.25;101097.53;4881895;29;20066;-66
2021/08/31 08:16:32;;;;;;;6.28;4.15;;;;;;;25.06;76.11;101092.28;4881656;29;20029;-66
2021/08/31 08:19:17;;;;;;;7.53;4.32;;;;;;;25.33;72.61;101095.69;4882201;29;20069;-66
2021/08/31 08:22:06;;;;;;;6.78;5.10;;;;;;;25.66;70.36;101101.28;4880571;29;20025;-66
2021/08/31 08:24:52;;;;;;;5.03;4.38;;;;;;;25.30;72.52;101093.22;4882155;29;20099;-66
2021/08/31 08:27:37;;;;;;;5.80;3.95;;;;;;;26.16;70.65;101084.97;4882102;29;20029;-66
2021/08/31 08:30:23;;;;;;;8.82;4.15;;;;;;;26.00;70.31;101085.25;4882992;29;20146;-68
2021/08/31 08:33:09;;;;;;;7.97;4.38;;;;;;;26.04;67.65;101091.28;4881617;29;20082;-68
2021/08/31 08:35:55;;;;;;;5.60;3.95;;;;;;;26.32;64.70;101086.34;4881294;29;20041;-66
2021/08/31 08:38:44;;;;;;;4.50;3.67;;;;;;;27.18;62.30;101087.59;4881791;29;20044;-67
2021/08/31 08:41:29;;;;;;;3.97;3.42;;;;;;;26.48;60.75;101080.69;4867603;29;20040;-66
2021/08/31 08:44:15;;;;;;;4.82;3.90;;;;;;;27.05;57.39;101084.19;4881046;29;20024;-67
2021/08/31 08:47:02;;;;;;;5.45;4.25;;;;;;;26.67;57.59;101078.28;4880187;29;20032;-67
2021/08/31 08:49:49;;;;;;;4.78;4.10;;;;;;;26.76;58.18;101086.47;4880963;29;20029;-67
2021/08/31 08:52:35;;;;;;;5.80;3.70;;;;;;;27.35;54.94;101079.06;4879665;29;20096;-67
2021/08/31 08:55:24;;;;;;;5.43;4.25;;;;;;;27.09;55.65;101075.72;4881321;29;20381;-67
2021/08/31 08:58:11;;;;;;;4.70;3.70;;;;;;;26.19;57.83;101079.34;4880023;29;20037;-67
2021/08/31 09:01:04;;;;;;;4.95;3.63;;;;;;;27.18;56.97;101075.00;4867574;29;20120;-67
2021/08/31 09:03:54;;;;;;;14.05;4.57;;;;;;;26.75;57.27;101062.41;4879770;29;20029;-67
2021/08/31 09:06:41;;;;;;;6.95;4.18;;;;;;;27.25;54.28;101070.03;4866753;29;20037;-68
2021/08/31 09:09:27;;;;;;;6.15;3.50;;;;;;;27.83;54.37;101066.97;4879782;29;20119;-65
2021/08/31 09:12:33;;;;;;;6.68;3.60;;;;;;;27.89;53.30;101055.69;4881009;29;20053;-66
2021/08/31 09:15:39;;;;;;;4.60;3.22;;;;;;;27.64;52.97;101061.34;4880185;29;20033;-66
2021/08/31 09:18:27;;;;;;;4.85;3.03;;;;;;;27.94;50.32;101060.69;4880045;29;20040;-66
2021/08/31 09:21:21;;;;;;;3.20;2.90;;;;;;;27.36;51.92;101059.22;4880332;29;20129;-66
2021/08/31 09:24:06;;;;;;;4.22;2.78;;;;;;;28.08;49.47;101071.16;4880116;29;20041;-66
2021/08/31 09:26:52;;;;;;;4.65;2.30;;;;;;;27.90;45.35;101068.19;4879700;29;20048;-66
2021/08/31 09:29:39;;;;;;;3.28;2.50;;;;;;;27.76;46.25;101063.03;4881177;29;20020;-65
2021/08/31 09:32:25;;;;;;;5.18;2.45;;;;;;;27.70;43.79;101049.22;4866880;29;20032;-66
2021/08/31 09:35:15;;;;;;;1.92;1.73;;;;;;;27.61;44.12;101053.56;4879672;29;20467;-66
2021/08/31 09:38:06;;;;;;;2.22;1.83;;;;;;;27.80;43.11;101051.03;4881158;29;20439;-67
2021/08/31 09:40:53;;;;;;;2.15;1.95;;;;;;;27.90;43.39;101043.94;4880019;29;20423;-66
2021/08/31 09:43:48;;;;;;;3.80;2.65;;;;;;;27.61;44.57;101032.03;4879191;29;20483;-66
2021/08/31 09:47:03;;;;;;;3.92;2.15;;;;;;;27.87;43.67;101033.41;4866239;29;20507;-66
2021/08/31 09:49:48;;;;;;;2.28;2.08;;;;;;;27.93;42.66;101034.75;4880929;29;20032;-67
2021/08/31 09:52:34;;;;;;;3.35;1.92;;;;;;;27.59;43.37;101033.97;4880532;29;20421;-66
2021/08/31 09:55:21;;;;;;;3.88;2.00;;;;;;;28.03;43.98;101028.44;4868620;29;20059;-66
2021/08/31 09:58:25;;;;;;;4.55;2.10;;;;;;;28.03;43.41;101020.34;4884205;29;20037;-67
2021/08/31 10:01:11;;;;;;;2.33;2.13;;;;;;;28.02;42.74;101013.25;4883995;29;20033;-67
2021/08/31 10:03:57;;;;;;;5.70;2.15;;;;;;;28.13;43.04;101020.44;4882387;29;20083;-66
2021/08/31 10:06:43;;;;;;;4.35;3.10;;;;;;;27.88;42.43;101020.81;4883326;29;20036;-67
2021/08/31 10:09:30;;;;;;;3.25;2.95;;;;;;;28.04;44.01;101021.22;4869406;29;20033;-67
2021/08/31 10:12:19;;;;;;;2.63;2.15;;;;;;;28.16;42.60;101018.31;4883026;29;20048;-66
2021/08/31 10:15:08;;;;;;;2.53;2.28;;;;;;;28.11;42.60;101014.31;4869767;29;20041;-67
2021/08/31 10:17:54;;;;;;;2.40;2.00;;;;;;;28.40;40.99;101018.91;4882224;29;20531;-67
2021/08/31 10:20:46;;;;;;;3.45;2.10;;;;;;;28.14;42.36;101011.34;4869790;29;20032;-67
2021/08/31 10:23:37;;;;;;;2.65;2.45;;;;;;;28.14;43.08;101008.66;4883443;29;20033;-66
2021/08/31 10:26:24;;;;;;;2.38;2.05;;;;;;;28.44;41.76;101014.16;4883884;29;20048;-67
2021/08/31 10:29:15;;;;;;;2.33;2.00;;;;;;;28.27;41.41;101012.00;4883708;29;20362;-67
2021/08/31 10:32:04;;;;;;;4.80;2.05;;;;;;;28.21;41.24;101015.25;4882934;29;20043;-67
2021/08/31 10:34:49;;;;;;;4.30;2.00;;;;;;;28.42;41.32;100999.94;4882271;29;20033;-67
2021/08/31 10:37:46;;;;;;;3.50;2.40;;;;;;;29.00;41.18;101002.78;4883741;29;20109;-67
2021/08/31 10:40:33;;;;;;;4.35;2.67;;;;;;;28.84;40.67;101004.25;4882230;29;20059;-66
2021/08/31 10:43:22;;;;;;;2.50;2.30;;;;;;;28.74;40.13;100996.13;4884504;29;20040;-67
2021/08/31 10:46:07;;;;;;;3.85;2.70;;;;;;;28.92;40.73;101002.59;4869325;29;20064;-66
2021/08/31 10:49:01;;;;;;;5.07;2.63;;;;;;;28.79;41.75;101006.50;4883799;29;20040;-66
2021/08/31 10:52:02;;;;;;;6.82;2.38;;;;;;;28.85;40.16;100998.72;4882323;29;20075;-66
2021/08/31 10:54:48;;;;;;;4.53;2.40;;;;;;;28.58;40.71;101001.16;4882497;29;20044;-66
2021/08/31 13:35:35;;;;;;;2.70;1.80;;;;;;;29.85;34.38;100879.66;5939318;23;20047;31
2021/08/31 13:38:21;;;;;;;2.33;1.70;;;;;;;29.83;34.52;100877.13;4808392;29;20043;-68
2021/08/31 13:41:07;;;;;;;2.92;1.73;;;;;;;29.76;34.92;100875.13;4796048;29;20127;-68
2021/08/31 13:43:52;;;;;;;4.75;1.92;;;;;;;29.59;35.32;100865.06;4810509;29;20346;-68
2021/08/31 13:46:40;;;;;;;3.22;1.80;;;;;;;29.73;35.35;100867.31;4809895;29;20023;-67
2021/08/31 13:49:26;;;;;;;2.00;1.70;;;;;;;29.81;34.63;100872.84;4811740;29;20460;-68
2021/08/31 13:52:12;;;;;;;4.25;1.80;;;;;;;29.89;34.89;100867.56;4798066;29;20066;-68
2021/08/31 13:54:57;;;;;;;4.55;1.80;;;;;;;30.08;34.59;100851.28;4811783;29;20030;-68
2021/08/31 13:57:43;;;;;;;6.13;1.95;;;;;;;30.17;34.98;100867.50;4797890;29;20430;-67
2021/08/31 14:00:29;;;;;;;4.03;1.70;;;;;;;30.13;34.43;100857.94;4798036;29;20038;-68
2021/08/31 14:03:16;;;;;;;12.43;1.77;;;;;;;29.93;34.58;100856.31;4811853;29;20110;-68
2021/08/31 14:06:01;;;;;;;2.75;2.15;;;;;;;29.72;34.30;100852.94;4811750;29;20064;-68
2021/08/31 14:08:47;;;;;;;2.25;1.90;;;;;;;29.48;34.36;100849.84;4797825;29;20115;-69
2021/08/31 14:11:33;;;;;;;2.85;1.60;;;;;;;29.50;34.78;100855.94;4811519;29;20088;-68
2021/08/31 16:23:46;;;;;;;6.07;2.95;;;;;;;28.27;37.67;100829.59;4972402;23;20052;-66
2021/08/31 16:26:31;;;;;;;6.47;3.15;;;;;;;28.06;37.73;100834.19;4874649;29;20116;-67
2021/08/31 16:29:17;;;;;;;2.72;2.40;;;;;;;27.86;37.63;100829.69;4882339;29;20454;-66
2021/08/31 16:32:04;;;;;;;3.53;2.85;;;;;;;27.83;37.99;100832.66;4870764;29;20033;-66
2021/08/31 16:34:52;;;;;;;4.63;2.53;;;;;;;27.57;38.02;100834.03;4882258;29;20152;-66
2021/08/31 16:37:40;;;;;;;4.38;2.75;;;;;;;27.94;38.32;100835.28;4880969;29;20446;-66
2021/08/31 16:41:11;;;;;;;5.93;3.10;;;;;;;27.93;38.16;100830.00;4880396;29;20033;-67
2021/08/31 16:43:57;;;;;;;4.30;3.00;;;;;;;27.98;38.60;100825.94;4880718;29;20119;-66
2021/08/31 16:46:43;;;;;;;7.38;3.20;;;;;;;27.76;39.26;100831.44;4879212;29;20032;-67
2021/08/31 16:49:29;;;;;;;6.63;3.22;;;;;;;27.83;39.11;100829.09;4880651;29;20064;-66
2021/08/31 16:52:15;;;;;;;4.88;3.08;;;;;;;27.69;39.50;100829.41;4867352;29;20033;-66
2021/08/31 16:55:02;;;;;;;3.67;3.00;;;;;;;27.57;39.57;100830.47;4868428;29;20122;-67
2021/08/31 16:57:50;;;;;;;6.15;3.38;;;;;;;27.54;39.70;100831.59;4880761;29;20096;-66
2021/08/31 17:00:35;;;;;;;3.88;3.25;;;;;;;27.30;40.42;100831.88;4880207;29;20374;-67
2021/08/31 17:03:24;;;;;;;8.45;4.40;;;;;;;27.31;40.76;100838.06;4881234;29;20029;-66
2021/08/31 17:06:10;;;;;;;9.02;3.78;;;;;;;27.32;41.13;100846.03;4881854;29;20040;-67
2021/08/31 17:08:59;;;;;;;6.65;3.95;;;;;;;27.13;42.16;100843.13;4867381;29;20462;-67
2021/08/31 17:11:44;;;;;;;9.23;4.00;;;;;;;27.18;42.49;100850.84;4868533;29;20036;-67
2021/08/31 17:14:30;;;;;;;6.93;4.13;;;;;;;26.93;43.67;100851.19;4880054;29;20043;-66
2021/08/31 17:17:17;;;;;;;13.32;5.43;;;;;;;26.68;44.41;100846.94;4867798;29;20036;-67
2021/08/31 17:20:03;;;;;;;12.27;6.72;;;;;;;26.71;44.28;100853.91;4881508;29;20037;-66
2021/08/31 17:22:49;;;;;;;13.55;6.22;;;;;;;26.83;44.45;100850.22;4881335;29;20052;-67
2021/08/31 17:25:35;;;;;;;12.95;6.22;;;;;;;26.41;45.72;100849.16;4880411;29;20431;-67
2021/08/31 17:28:21;;;;;;;11.40;6.68;;;;;;;26.68;46.01;100851.50;4880052;29;20033;-66
2021/08/31 17:31:07;;;;;;;11.13;6.82;;;;;;;26.72;46.25;100856.47;4879977;29;20032;-67
2021/08/31 17:33:55;;;;;;;14.85;7.07;;;;;;;26.69;46.40;100867.47;4881549;29;20374;-67
2021/08/31 17:36:41;;;;;;;11.48;5.88;;;;;;;26.62;47.28;100860.91;4879763;29;20108;-66
2021/08/31 17:39:27;;;;;;;11.10;6.63;;;;;;;26.47;47.71;100862.13;4879744;29;20037;-67
2021/08/31 17:42:13;;;;;;;9.15;6.53;;;;;;;26.37;48.67;100863.81;4879869;29;20099;-67
2021/08/31 17:44:58;;;;;;;13.20;7.53;;;;;;;26.40;48.91;100862.75;4879940;29;20029;-67
2021/08/31 17:47:44;;;;;;;16.65;8.15;;;;;;;26.04;50.50;100866.50;4880622;29;20057;-67
2021/08/31 17:50:30;;;;;;;14.13;7.30;;;;;;;26.17;50.65;100861.91;4879060;29;20427;-67
2021/08/31 17:53:25;;;;;;;14.15;7.20;;;;;;;26.22;51.01;100874.94;4880240;29;20028;-67
2021/08/31 17:56:11;;;;;;;19.95;8.68;;;;;;;26.08;51.87;100876.03;4866820;29;20029;-67
2021/08/31 17:58:57;;;;;;;15.57;8.50;;;;;;;26.19;52.29;100880.56;4866938;29;20033;-67
2021/08/31 18:01:43;;;;;;;17.27;9.52;;;;;;;26.16;52.66;100878.97;4881169;29;20044;-67
2021/08/31 18:04:28;;;;;;;19.30;9.43;;;;;;;25.74;54.99;100884.13;4881318;29;20115;-66
2021/08/31 18:07:17;;;;;;;18.23;9.20;;;;;;;25.74;55.75;100887.69;4866622;29;20033;-67
2021/08/31 18:10:06;;;;;;;24.85;14.95;;;;;;;25.45;57.93;100891.75;4879580;29;20052;-67
2021/08/31 18:12:52;;;;;;;18.73;9.57;;;;;;;25.69;58.12;100886.31;4879829;29;20040;-67
2021/08/31 18:15:38;;;;;;;16.75;9.75;;;;;;;25.51;60.02;100895.81;4880947;29;20454;-66
2021/08/31 18:18:23;;;;;;;22.73;9.07;;;;;;;25.74;59.21;100893.06;4883379;29;20595;-66
2021/08/31 18:21:09;;;;;;;19.27;9.13;;;;;;;25.35;60.83;100893.41;4884647;29;20100;-66
2021/08/31 18:23:55;;;;;;;21.83;10.00;;;;;;;25.20;62.87;100888.31;4884703;29;20056;-66
2021/08/31 18:26:41;;;;;;;22.40;9.40;;;;;;;25.49;62.09;100901.28;5245739;23;20382;-66
2021/08/31 18:29:27;;;;;;;18.55;9.60;;;;;;;25.42;63.22;100899.16;4902032;29;20099;-69
2021/08/31 18:32:13;;;;;;;21.02;9.23;;;;;;;25.36;65.25;100902.31;4902010;29;20052;-66
2021/08/31 18:34:59;;;;;;;19.17;9.25;;;;;;;25.41;64.53;100897.47;4901380;29;20032;-66
2021/08/31 18:37:44;;;;;;;14.48;8.50;;;;;;;25.60;62.71;100898.59;4883190;29;20461;-67
2021/08/31 18:40:30;;;;;;;19.75;8.80;;;;;;;25.36;64.92;100896.97;4883398;29;20108;-68
2021/08/31 18:43:16;;;;;;;23.67;9.80;;;;;;;25.30;65.20;100900.09;4869966;29;20033;-68
2021/08/31 18:46:03;;;;;;;19.25;9.43;;;;;;;25.18;65.63;100901.84;4883842;29;20096;-68
2021/08/31 18:48:49;;;;;;;20.33;8.80;;;;;;;25.12;65.24;100898.75;4883491;29;20505;-68
2021/08/31 18:51:34;;;;;;;20.33;10.05;;;;;;;25.02;65.87;100900.41;4868624;29;20065;-68
2021/08/31 18:54:20;;;;;;;17.05;8.93;;;;;;;25.27;65.04;100903.81;4883195;29;20033;-68
2021/08/31 18:57:06;;;;;;;19.33;9.13;;;;;;;24.97;65.38;100897.22;4883218;29;20100;-68
2021/08/31 18:59:52;;;;;;;16.77;9.25;;;;;;;25.15;66.06;100898.53;4883185;29;20028;-67